createdAt,value
2019-05-21T00:00:08.223Z,4.45
2019-05-21T00:02:38.400Z,4.12
2019-05-21T00:05:07.676Z,4.90
2019-05-21T00:07:36.908Z,3.72
2019-05-21T00:10:06.648Z,5.05
2019-05-21T00:12:37.546Z,2.85
2019-05-21T00:15:06.793Z,4.45
2019-05-21T00:17:37.538Z,3.00
2019-05-21T00:20:07.176Z,6.60
2019-05-21T00:22:36.616Z,3.52
2019-05-21T00:25:06.187Z,3.10
2019-05-21T00:27:35.447Z,4.62
2019-05-21T00:30:22.726Z,4.12
2019-05-21T00:33:10.546Z,4.10
2019-05-21T00:35:57.865Z,4.10
2019-05-21T00:38:46.694Z,4.47
2019-05-21T00:41:34.391Z,4.35
2019-05-21T00:44:03.622Z,3.87
2019-05-21T00:46:32.923Z,2.95
2019-05-21T00:49:02.197Z,3.55
2019-05-21T00:51:31.501Z,3.52
2019-05-21T00:54:00.773Z,3.92
2019-05-21T00:56:30.005Z,3.50
2019-05-21T00:58:59.271Z,4.50
2019-05-21T01:01:28.515Z,3.92
2019-05-21T01:03:57.884Z,3.62
2019-05-21T01:06:27.193Z,2.72
2019-05-21T01:08:56.462Z,3.02
2019-05-21T01:11:25.758Z,2.47
2019-05-21T01:13:55.183Z,2.55
2019-05-21T01:16:24.591Z,2.37
2019-05-21T01:18:53.923Z,5.00
2019-05-21T01:21:23.150Z,4.05
2019-05-21T01:23:52.431Z,3.42
2019-05-21T01:26:21.656Z,3.70
2019-05-21T01:28:50.938Z,3.60
2019-05-21T01:31:20.159Z,3.40
2019-05-21T01:33:50.505Z,3.47
2019-05-21T01:36:19.825Z,3.35
2019-05-21T01:38:49.052Z,3.83
2019-05-21T01:41:18.281Z,3.33
2019-05-21T01:43:47.637Z,3.08
2019-05-21T01:46:16.875Z,3.27
2019-05-21T01:48:46.096Z,3.75
2019-05-21T01:51:15.377Z,4.10
2019-05-21T01:53:44.607Z,4.75
2019-05-21T01:56:13.852Z,3.83
2019-05-21T01:58:43.116Z,3.20
2019-05-21T02:01:12.358Z,4.15
2019-05-21T02:03:41.619Z,3.05
2019-05-21T02:06:10.925Z,3.92
2019-05-21T02:08:40.246Z,4.17
2019-05-21T02:11:09.551Z,3.30
2019-05-21T02:13:38.892Z,3.58
2019-05-21T02:16:08.233Z,4.37
2019-05-21T02:18:37.484Z,3.30
2019-05-21T02:21:06.738Z,3.90
2019-05-21T02:23:35.992Z,3.02
2019-05-21T02:26:05.249Z,3.85
2019-05-21T02:28:34.487Z,3.05
2019-05-21T02:31:03.783Z,3.22
2019-05-21T02:33:33.022Z,4.62
2019-05-21T02:36:02.262Z,2.62
2019-05-21T02:38:31.507Z,2.95
2019-05-21T02:41:00.727Z,3.27
2019-05-21T02:43:30.270Z,3.05
2019-05-21T02:45:59.498Z,3.02
2019-05-21T02:48:28.759Z,3.22
2019-05-21T02:50:58.022Z,3.02
2019-05-21T02:53:27.354Z,3.60
2019-05-21T02:55:56.550Z,3.80
2019-05-21T02:58:25.904Z,2.98
2019-05-21T03:00:56.830Z,2.92
2019-05-21T03:03:27.737Z,3.87
2019-05-21T03:06:12.283Z,3.67
2019-05-21T03:08:28.092Z,3.90
2019-05-21T03:10:57.346Z,4.30
2019-05-21T03:13:26.567Z,3.40
2019-05-21T03:15:55.964Z,3.60
2019-05-21T03:18:25.173Z,2.75
2019-05-21T03:20:54.463Z,2.85
2019-05-21T03:23:23.782Z,3.33
2019-05-21T03:25:53.065Z,2.85
2019-05-21T03:28:22.360Z,2.52
2019-05-21T03:30:51.589Z,3.25
2019-05-21T03:33:20.942Z,3.22
2019-05-21T03:35:50.170Z,4.10
2019-05-21T03:38:20.457Z,3.95
2019-05-21T03:40:49.798Z,3.25
2019-05-21T03:43:19.044Z,3.75
2019-05-21T03:45:48.355Z,3.20
2019-05-21T03:48:17.626Z,3.65
2019-05-21T03:50:46.874Z,3.90
2019-05-21T03:53:16.302Z,3.90
2019-05-21T03:55:47.937Z,2.90
2019-05-21T03:58:17.307Z,3.40
2019-05-21T04:00:47.049Z,3.50
2019-05-21T04:03:17.459Z,3.15
2019-05-21T04:05:46.741Z,3.77
2019-05-21T04:08:15.980Z,2.35
2019-05-21T04:10:45.644Z,3.52
2019-05-21T04:13:14.946Z,3.50
2019-05-21T04:15:51.839Z,4.92
2019-05-21T04:18:28.510Z,3.58
2019-05-21T04:20:57.759Z,4.10
2019-05-21T04:23:27.054Z,3.37
2019-05-21T04:25:56.430Z,3.67
2019-05-21T04:28:25.788Z,3.40
2019-05-21T04:30:55.051Z,3.58
2019-05-21T04:33:24.396Z,4.10
2019-05-21T04:36:08.647Z,4.05
2019-05-21T04:38:48.174Z,4.15
2019-05-21T04:41:24.674Z,3.80
2019-05-21T04:43:56.424Z,3.77
2019-05-21T04:46:27.536Z,3.10
2019-05-21T04:48:56.543Z,3.55
2019-05-21T04:51:25.824Z,4.28
2019-05-21T04:53:55.058Z,2.90
2019-05-21T04:56:24.309Z,3.33
2019-05-21T04:58:53.599Z,4.75
2019-05-21T05:01:22.837Z,3.42
2019-05-21T05:03:53.493Z,2.83
2019-05-21T05:06:24.214Z,3.70
2019-05-21T05:08:53.527Z,3.20
2019-05-21T05:11:22.750Z,3.92
2019-05-21T05:13:52.056Z,3.95
2019-05-21T05:16:21.299Z,6.12
2019-05-21T05:18:50.572Z,6.40
2019-05-21T05:21:20.030Z,5.72
2019-05-21T05:23:49.577Z,5.65
2019-05-21T05:26:18.899Z,5.95
2019-05-21T05:28:48.335Z,4.25
2019-05-21T05:31:17.772Z,5.92
2019-05-21T05:33:47.117Z,7.50
2019-05-21T05:36:16.353Z,6.17
2019-05-21T05:38:46.821Z,6.17
2019-05-21T05:41:16.130Z,6.30
2019-05-21T05:43:45.427Z,5.62
2019-05-21T05:46:14.668Z,6.00
2019-05-21T05:48:48.352Z,4.35
2019-05-21T05:51:17.566Z,4.53
2019-05-21T05:53:58.816Z,4.83
2019-05-21T05:56:28.489Z,4.72
2019-05-21T05:58:57.645Z,4.12
2019-05-21T06:01:29.680Z,5.33
2019-05-21T06:03:58.894Z,5.80
2019-05-21T06:06:28.328Z,3.58
2019-05-21T06:08:57.563Z,5.03
2019-05-21T06:11:26.806Z,4.45
2019-05-21T06:13:56.071Z,4.05
2019-05-21T06:16:25.471Z,4.45
2019-05-21T06:18:54.956Z,4.58
2019-05-21T06:21:24.206Z,3.72
2019-05-21T06:23:53.503Z,3.62
2019-05-21T06:26:22.964Z,4.00
2019-05-21T06:28:52.181Z,3.80
2019-05-21T06:31:21.418Z,4.15
2019-05-21T06:33:50.690Z,4.85
2019-05-21T06:36:20.099Z,3.50
2019-05-21T06:38:49.558Z,3.65
2019-05-21T06:41:18.936Z,3.60
2019-05-21T06:43:48.205Z,5.17
2019-05-21T06:46:17.441Z,3.90
2019-05-21T06:48:47.982Z,2.83
2019-05-21T06:51:17.236Z,3.92
2019-05-21T06:53:46.469Z,3.80
2019-05-21T06:56:15.734Z,4.05
2019-05-21T06:58:44.967Z,4.40
2019-05-21T07:01:14.282Z,5.00
2019-05-21T07:03:43.515Z,4.50
2019-05-21T07:06:12.740Z,4.83
2019-05-21T07:08:42.997Z,2.85
2019-05-21T07:11:12.293Z,3.33
2019-05-21T07:13:41.580Z,2.83
2019-05-21T07:16:10.812Z,3.60
2019-05-21T07:18:41.524Z,2.98
2019-05-21T07:21:11.092Z,3.17
2019-05-21T07:23:40.400Z,2.47
2019-05-21T07:26:09.634Z,4.05
2019-05-21T07:28:38.904Z,3.67
2019-05-21T07:31:08.135Z,3.67
2019-05-21T07:33:37.422Z,3.35
2019-05-21T07:36:07.841Z,3.47
2019-05-21T07:38:52.128Z,4.03
2019-05-21T07:41:08.195Z,4.22
2019-05-21T07:43:37.467Z,3.42
2019-05-21T07:46:06.740Z,3.08
2019-05-21T07:48:36.047Z,3.90
2019-05-21T07:51:05.296Z,3.05
2019-05-21T07:53:34.520Z,2.60
2019-05-21T07:56:03.829Z,3.52
2019-05-21T07:58:33.062Z,2.47
2019-05-21T08:01:02.318Z,2.35
2019-05-21T08:03:31.545Z,2.35
2019-05-21T08:06:02.155Z,2.47
2019-05-21T08:08:31.779Z,2.40
2019-05-21T08:11:02.997Z,1.90
2019-05-21T08:13:33.788Z,2.62
2019-05-21T08:16:05.758Z,3.50
2019-05-21T08:18:35.064Z,2.12
2019-05-21T08:21:04.398Z,3.12
2019-05-21T08:23:33.668Z,2.35
2019-05-21T08:26:02.911Z,2.52
2019-05-21T08:28:32.138Z,2.37
2019-05-21T08:31:02.317Z,3.70
2019-05-21T08:33:31.869Z,3.17
2019-05-21T08:36:01.145Z,3.10
2019-05-21T08:38:30.376Z,2.80
2019-05-21T08:40:59.606Z,3.30
2019-05-21T08:43:28.891Z,2.58
2019-05-21T08:45:58.119Z,2.58
2019-05-21T08:48:27.341Z,2.22
2019-05-21T08:50:56.629Z,2.52
2019-05-21T08:53:25.868Z,2.37
2019-05-21T08:55:55.121Z,2.83
2019-05-21T08:58:24.357Z,2.47
2019-05-21T09:00:53.695Z,3.35
2019-05-21T09:03:22.968Z,2.40
2019-05-21T09:05:52.197Z,3.00
2019-05-21T09:08:21.541Z,2.50
2019-05-21T09:10:50.816Z,2.85
2019-05-21T09:13:21.232Z,3.12
2019-05-21T09:15:50.569Z,3.67
2019-05-21T09:18:19.874Z,3.33
2019-05-21T09:20:49.138Z,4.15
2019-05-21T09:23:18.397Z,2.75
2019-05-21T09:25:49.583Z,3.40
2019-05-21T09:28:18.526Z,3.20
2019-05-21T09:30:47.844Z,4.03
2019-05-21T09:33:17.134Z,4.50
2019-05-21T09:35:46.394Z,4.15
2019-05-21T09:38:15.701Z,3.60
2019-05-21T09:40:45.614Z,3.90
2019-05-21T09:43:17.304Z,4.45
2019-05-21T09:45:46.604Z,3.65
2019-05-21T09:48:16.377Z,4.83
2019-05-21T09:50:46.304Z,5.25
2019-05-21T09:53:15.882Z,5.28
2019-05-21T09:55:45.218Z,6.12
2019-05-21T09:58:16.735Z,4.50
2019-05-21T10:01:03.966Z,4.33
2019-05-21T10:03:36.214Z,5.35
2019-05-21T10:06:05.454Z,3.95
2019-05-21T10:08:37.214Z,4.30
2019-05-21T10:11:05.786Z,5.08
2019-05-21T10:13:35.997Z,5.10
2019-05-21T10:16:05.273Z,5.22
2019-05-21T10:18:34.640Z,5.60
2019-05-21T10:21:03.976Z,4.90
2019-05-21T10:23:33.243Z,6.80
2019-05-21T10:26:02.487Z,5.65
2019-05-21T10:28:31.750Z,4.47
2019-05-21T10:31:01.042Z,4.25
2019-05-21T10:33:30.378Z,7.42
2019-05-21T10:35:59.795Z,4.92
2019-05-21T10:38:29.086Z,6.05
2019-05-21T10:40:58.409Z,6.72
2019-05-21T10:43:27.641Z,5.55
2019-05-21T10:45:56.925Z,7.12
2019-05-21T10:48:26.227Z,5.47
2019-05-21T10:50:55.561Z,6.08
2019-05-21T10:53:24.842Z,7.05
2019-05-21T10:55:55.130Z,5.65
2019-05-21T10:58:24.541Z,6.87
2019-05-21T11:00:55.939Z,6.35
2019-05-21T11:03:44.651Z,6.10
2019-05-21T11:06:15.685Z,6.55
2019-05-21T11:08:45.031Z,6.75
2019-05-21T11:11:14.266Z,5.00
2019-05-21T11:13:43.518Z,6.42
2019-05-21T11:16:13.061Z,7.92
2019-05-21T11:18:42.398Z,6.40
2019-05-21T11:21:11.766Z,8.00
2019-05-21T11:23:41.289Z,8.50
2019-05-21T11:26:10.694Z,6.97
2019-05-21T11:28:40.094Z,5.95
2019-05-21T11:31:09.398Z,6.97
2019-05-21T11:33:38.856Z,6.35
2019-05-21T11:36:08.361Z,7.22
2019-05-21T11:38:40.357Z,7.60
2019-05-21T11:41:08.744Z,7.03
2019-05-21T11:43:38.047Z,6.83
2019-05-21T11:46:08.878Z,7.95
2019-05-21T11:48:38.182Z,5.70
2019-05-21T11:51:07.609Z,8.08
2019-05-21T11:53:37.011Z,7.05
2019-05-21T11:56:06.226Z,7.35
2019-05-21T11:58:39.620Z,7.72
2019-05-21T12:01:06.519Z,6.03
2019-05-21T12:03:36.041Z,6.33
2019-05-21T12:06:05.326Z,7.03
2019-05-21T12:08:34.796Z,6.65
2019-05-21T12:11:04.299Z,6.45
2019-05-21T12:13:33.866Z,7.25
2019-05-21T12:16:03.279Z,6.25
2019-05-21T12:18:32.705Z,7.42
2019-05-21T12:21:02.050Z,7.78
2019-05-21T12:23:31.506Z,5.80
2019-05-21T12:26:02.202Z,5.80
2019-05-21T12:28:31.436Z,7.08
2019-05-21T12:31:00.726Z,6.10
2019-05-21T12:33:29.978Z,5.30
2019-05-21T12:36:00.497Z,7.53
2019-05-21T12:38:29.930Z,4.83
2019-05-21T12:40:59.347Z,6.15
2019-05-21T12:43:28.818Z,6.70
2019-05-21T12:45:59.500Z,6.90
2019-05-21T12:48:28.914Z,5.70
2019-05-21T12:50:58.364Z,6.42
2019-05-21T12:53:27.639Z,5.80
2019-05-21T12:55:57.086Z,7.65
2019-05-21T12:58:26.500Z,7.40
2019-05-21T13:00:55.774Z,6.65
2019-05-21T13:03:25.023Z,6.53
2019-05-21T13:05:54.358Z,7.53
2019-05-21T13:08:23.630Z,6.22
2019-05-21T13:10:52.987Z,7.03
2019-05-21T13:13:22.461Z,7.35
2019-05-21T13:15:51.961Z,6.08
2019-05-21T13:18:21.230Z,7.03
2019-05-21T13:20:50.646Z,6.17
2019-05-21T13:23:19.909Z,7.70
2019-05-21T13:25:49.194Z,6.45
2019-05-21T13:28:18.474Z,6.35
2019-05-21T13:30:47.890Z,6.67
2019-05-21T13:33:19.421Z,6.50
2019-05-21T13:35:48.408Z,5.67
2019-05-21T13:38:17.657Z,4.92
2019-05-21T13:40:48.018Z,6.17
2019-05-21T13:43:20.911Z,7.00
2019-05-21T13:45:48.318Z,6.87
2019-05-21T13:48:18.796Z,6.08
2019-05-21T13:50:48.035Z,6.15
2019-05-21T13:53:17.341Z,6.22
2019-05-21T13:55:46.602Z,5.85
2019-05-21T13:58:16.113Z,6.58
2019-05-21T14:00:49.901Z,5.78
2019-05-21T14:03:19.263Z,6.20
2019-05-21T14:05:48.552Z,4.65
2019-05-21T14:08:17.853Z,6.45
2019-05-21T14:10:47.155Z,6.42
2019-05-21T14:13:16.529Z,5.30
2019-05-21T14:15:47.122Z,5.33
2019-05-21T14:18:16.514Z,3.85
2019-05-21T14:20:45.894Z,4.83
2019-05-21T14:23:15.304Z,5.00
2019-05-21T14:25:44.587Z,5.90
2019-05-21T14:28:13.976Z,4.08
2019-05-21T14:30:43.401Z,3.50
2019-05-21T14:33:12.688Z,4.08
2019-05-21T14:35:42.079Z,3.50
2019-05-21T14:38:11.364Z,3.65
2019-05-21T14:40:40.816Z,4.62
2019-05-21T14:43:10.894Z,3.40
2019-05-21T14:45:40.303Z,3.90
2019-05-21T14:48:09.588Z,3.33
2019-05-21T14:50:38.993Z,5.20
2019-05-21T14:53:08.313Z,3.37
2019-05-21T14:55:37.591Z,4.53
2019-05-21T14:58:06.981Z,3.70
2019-05-21T15:00:38.830Z,3.12
2019-05-21T15:03:23.918Z,2.90
2019-05-21T15:05:39.181Z,3.70
2019-05-21T15:08:08.703Z,4.62
2019-05-21T15:10:48.077Z,3.12
2019-05-21T15:13:09.355Z,3.77
2019-05-21T15:15:38.596Z,4.35
2019-05-21T15:18:08.254Z,4.03
2019-05-21T15:20:54.250Z,4.65
2019-05-21T15:23:23.784Z,5.08
2019-05-21T15:25:53.056Z,4.12
2019-05-21T15:28:22.498Z,3.55
2019-05-21T15:30:52.023Z,3.95
2019-05-21T15:33:21.414Z,3.30
2019-05-21T15:35:50.739Z,4.10
2019-05-21T15:38:19.989Z,3.62
2019-05-21T15:41:08.738Z,4.70
2019-05-21T15:43:20.213Z,3.72
2019-05-21T15:45:50.022Z,4.97
2019-05-21T15:48:25.378Z,3.95
2019-05-21T15:50:51.938Z,3.30
2019-05-21T15:53:21.366Z,4.70
2019-05-21T15:55:50.624Z,3.52
2019-05-21T15:58:19.871Z,3.33
2019-05-21T16:00:49.397Z,3.62
2019-05-21T16:03:18.815Z,2.52
2019-05-21T16:05:48.177Z,2.85
2019-05-21T16:08:17.481Z,3.47
2019-05-21T16:10:46.915Z,3.60
2019-05-21T16:13:16.142Z,2.58
2019-05-21T16:15:45.655Z,1.90
2019-05-21T16:18:15.086Z,1.87
2019-05-21T16:20:44.432Z,2.15
2019-05-21T16:23:13.884Z,2.20
2019-05-21T16:25:43.286Z,1.55
2019-05-21T16:28:12.587Z,1.17
2019-05-21T16:30:42.095Z,1.35
2019-05-21T16:33:11.535Z,2.25
2019-05-21T16:35:40.747Z,1.10
2019-05-21T16:38:10.360Z,1.30
2019-05-21T16:40:39.845Z,0.70
2019-05-21T16:43:09.252Z,1.07
2019-05-21T16:45:38.607Z,1.27
2019-05-21T16:48:08.012Z,1.30
2019-05-21T16:50:37.326Z,0.80
2019-05-21T16:53:06.591Z,1.37
2019-05-21T16:55:36.174Z,1.75
2019-05-21T16:58:05.509Z,1.15
2019-05-21T17:00:34.752Z,6.53
2019-05-21T17:03:04.690Z,1.10
2019-05-21T17:05:34.228Z,1.30
2019-05-21T17:08:04.869Z,1.42
2019-05-21T17:10:34.430Z,1.22
2019-05-21T17:13:03.731Z,1.15
2019-05-21T17:15:33.260Z,1.12
2019-05-21T17:18:03.149Z,0.85
2019-05-21T17:20:34.593Z,1.10
2019-05-21T17:23:04.115Z,1.00
2019-05-21T17:25:33.398Z,1.20
2019-05-21T17:28:02.988Z,1.20
2019-05-21T17:30:32.437Z,1.30
2019-05-21T17:33:01.973Z,1.30
2019-05-21T17:35:32.533Z,1.20
2019-05-21T17:38:02.014Z,0.72
2019-05-21T17:40:32.454Z,1.80
2019-05-21T17:43:02.025Z,0.95
2019-05-21T17:45:31.419Z,1.10
2019-05-21T17:48:00.837Z,0.80
2019-05-21T17:50:30.149Z,0.80
2019-05-21T17:52:59.708Z,1.10
2019-05-21T17:55:31.991Z,1.40
2019-05-21T17:58:01.375Z,1.50
2019-05-21T18:00:38.442Z,1.57
2019-05-21T18:03:08.294Z,1.10
2019-05-21T18:05:38.998Z,1.32
2019-05-21T18:08:08.605Z,0.90
2019-05-21T18:10:38.414Z,0.78
2019-05-21T18:13:07.952Z,1.10
2019-05-21T18:15:37.852Z,1.45
2019-05-21T18:18:08.616Z,1.40
2019-05-21T18:20:39.188Z,0.93
2019-05-21T18:23:08.438Z,1.10
2019-05-21T18:25:37.734Z,1.70
2019-05-21T18:28:07.266Z,1.00
2019-05-21T18:30:36.822Z,1.52
2019-05-21T18:33:06.340Z,1.20
2019-05-21T18:35:35.622Z,1.15
2019-05-21T18:38:05.144Z,1.47
2019-05-21T18:40:34.572Z,1.12
2019-05-21T18:43:05.307Z,1.00
2019-05-21T18:45:34.845Z,2.05
2019-05-21T18:48:04.173Z,1.70
2019-05-21T18:50:36.764Z,1.05
2019-05-21T18:53:04.517Z,1.30
2019-05-21T18:55:33.916Z,1.37
2019-05-21T18:58:03.291Z,1.25
2019-05-21T19:00:32.766Z,1.12
2019-05-21T19:03:02.132Z,1.45
2019-05-21T19:05:31.702Z,1.00
2019-05-21T19:08:01.371Z,1.07
2019-05-21T19:10:30.675Z,1.67
2019-05-21T19:13:01.058Z,1.15
2019-05-21T19:15:30.635Z,1.50
2019-05-21T19:17:59.865Z,1.75
2019-05-21T19:20:29.230Z,1.30
2019-05-21T19:22:58.459Z,1.42
2019-05-21T19:25:27.750Z,1.30
2019-05-21T19:27:57.098Z,1.27
2019-05-21T19:30:26.609Z,1.07
2019-05-21T19:32:56.105Z,1.85
2019-05-21T19:35:25.687Z,1.87
2019-05-21T19:37:55.067Z,1.60
2019-05-21T19:40:24.504Z,1.52
2019-05-21T19:42:55.554Z,1.25
2019-05-21T19:45:24.841Z,1.90
2019-05-21T19:47:54.065Z,1.47
2019-05-21T19:50:23.349Z,1.30
2019-05-21T19:52:52.650Z,1.37
2019-05-21T19:55:22.278Z,1.10
2019-05-21T19:57:52.005Z,1.32
2019-05-21T20:00:22.086Z,1.32
2019-05-21T20:02:51.750Z,1.62
2019-05-21T20:05:21.169Z,1.50
2019-05-21T20:07:50.526Z,1.57
2019-05-21T20:10:19.859Z,1.40
2019-05-21T20:12:49.166Z,1.17
2019-05-21T20:15:18.550Z,1.30
2019-05-21T20:17:50.951Z,1.20
2019-05-21T20:20:20.601Z,1.35
2019-05-21T20:22:49.891Z,0.90
2019-05-21T20:25:19.554Z,1.60
2019-05-21T20:27:48.897Z,1.05
2019-05-21T20:30:23.243Z,1.47
2019-05-21T20:32:53.598Z,1.25
2019-05-21T20:35:23.448Z,1.70
2019-05-21T20:37:53.419Z,1.25
2019-05-21T20:40:23.469Z,1.22
2019-05-21T20:42:52.939Z,1.45
2019-05-21T20:45:22.392Z,1.10
2019-05-21T20:47:52.874Z,1.10
2019-05-21T20:50:22.630Z,1.00
2019-05-21T20:52:53.435Z,1.05
2019-05-21T20:55:22.698Z,1.10
2019-05-21T20:57:53.598Z,1.20
2019-05-21T21:00:25.094Z,1.60
2019-05-21T21:02:54.430Z,2.12
2019-05-21T21:05:24.597Z,1.10
2019-05-21T21:07:53.835Z,1.62
2019-05-21T21:10:23.261Z,1.37
2019-05-21T21:12:52.874Z,1.60
2019-05-21T21:15:23.209Z,1.77
2019-05-21T21:17:52.923Z,1.25
2019-05-21T21:20:22.301Z,2.27
2019-05-21T21:22:51.675Z,1.17
2019-05-21T21:25:21.211Z,1.45
2019-05-21T21:27:50.467Z,1.60
2019-05-21T21:30:19.818Z,1.22
2019-05-21T21:32:49.158Z,1.60
2019-05-21T21:35:18.913Z,1.42
2019-05-21T21:37:48.150Z,1.10
2019-05-21T21:40:18.766Z,1.15
2019-05-21T21:42:48.080Z,1.00
2019-05-21T21:45:17.441Z,1.05
2019-05-21T21:47:47.935Z,1.20
2019-05-21T21:50:18.567Z,1.05
2019-05-21T21:52:47.919Z,0.90
2019-05-21T21:55:17.242Z,1.70
2019-05-21T21:57:46.461Z,1.65
2019-05-21T22:00:34.180Z,1.60
2019-05-21T22:03:07.400Z,1.02
2019-05-21T22:05:36.971Z,1.50
2019-05-21T22:08:07.246Z,1.40
2019-05-21T22:10:36.854Z,1.77
2019-05-21T22:13:06.474Z,1.02
2019-05-21T22:15:35.894Z,1.02
2019-05-21T22:18:05.644Z,1.75
2019-05-21T22:20:35.158Z,1.40
2019-05-21T22:23:04.586Z,1.10
2019-05-21T22:25:33.854Z,1.15
2019-05-21T22:28:03.395Z,1.42
2019-05-21T22:30:33.898Z,0.82
2019-05-21T22:33:03.247Z,1.95
2019-05-21T22:35:32.585Z,1.27
2019-05-21T22:38:01.897Z,1.00
2019-05-21T22:40:31.118Z,2.47
2019-05-21T22:43:00.382Z,1.47
2019-05-21T22:45:29.996Z,1.62
2019-05-21T22:47:59.322Z,1.62
2019-05-21T22:50:28.689Z,1.37
2019-05-21T22:52:58.009Z,1.25
2019-05-21T22:55:27.330Z,2.02
2019-05-21T22:57:57.734Z,1.27
2019-05-21T23:00:27.099Z,1.25
2019-05-21T23:02:56.658Z,1.40
2019-05-21T23:05:26.023Z,1.22
2019-05-21T23:07:55.585Z,1.10
2019-05-21T23:10:25.546Z,1.12
2019-05-21T23:12:54.857Z,1.25
2019-05-21T23:15:25.554Z,1.52
2019-05-21T23:18:15.896Z,1.40
2019-05-21T23:20:50.430Z,0.90
2019-05-21T23:23:23.579Z,1.60
2019-05-21T23:25:54.082Z,1.52
2019-05-21T23:28:24.822Z,1.25
2019-05-21T23:30:54.832Z,1.45
2019-05-21T23:33:25.790Z,1.27
2019-05-21T23:35:55.022Z,0.93
2019-05-21T23:38:25.301Z,1.30
2019-05-21T23:40:55.178Z,1.30
2019-05-21T23:43:24.462Z,2.85
2019-05-21T23:45:53.767Z,1.25
2019-05-21T23:48:23.690Z,0.93
2019-05-21T23:50:53.081Z,1.15
2019-05-21T23:53:22.359Z,1.25
2019-05-21T23:55:51.592Z,1.45
2019-05-21T23:58:20.781Z,1.15
